Multan Weather



Multan's Current Weather

Temprature 26o smoke

smoke

Rain: 0 %

Min Temprature26o
Max Temprature26o
Humidity57
Wind Speed34 m/h
Sun Rise05:41:06
Sun Set18:44:23
Current Time: 21-Apr-2019 05:13:06
Lat/Lon: 30.2, 71.47




Multan's Geo Location



Multan's Weather Forecast

Time Overall Temp Min Temp Max Temp Humidity Wind Speed Rain
21-Apr-2019 (Sun)
08:00:00 clear sky 28.290 28.290 29.409 28 3.97 m/h 0 %
11:00:00 clear sky 34.310 34.310 35.050 19 4.28 m/h 0 %
14:00:00 clear sky 37.580 37.580 37.950 15 3.06 m/h 0 %
17:00:00 clear sky 38.350 38.350 38.350 13 1.57 m/h 0 %
20:00:00 clear sky 33.650 33.650 33.650 18 1.67 m/h 0 %
23:00:00 clear sky 32.360 32.360 32.360 19 2.78 m/h 0 %
22-Apr-2019 (Mon)
02:00:00 clear sky 29.670 29.670 29.670 23 2.15 m/h 0 %
05:00:00 clear sky 28.004 28.004 28.004 27 2.45 m/h 0 %
08:00:00 clear sky 31.536 31.536 31.536 25 3.27 m/h 0 %
11:00:00 clear sky 36.720 36.720 36.720 17 2.59 m/h 0 %
14:00:00 clear sky 40.615 40.615 40.615 12 0.66 m/h 0 %
17:00:00 clear sky 41.031 41.031 41.031 10 2.67 m/h 0 %
20:00:00 clear sky 36.050 36.050 36.050 13 1.87 m/h 0 %
23:00:00 clear sky 34.496 34.496 34.496 14 2.46 m/h 0 %
23-Apr-2019 (Tue)
02:00:00 few clouds 32.277 32.277 32.277 17 3.05 m/h 0 %
05:00:00 broken clouds 29.306 29.306 29.306 24 2.29 m/h 0 %
08:00:00 overcast clouds 32.247 32.247 32.247 23 4.03 m/h 0 %
11:00:00 broken clouds 37.950 37.950 37.950 15 2.67 m/h 0 %
14:00:00 clear sky 41.850 41.850 41.850 11 0.6 m/h 0 %
17:00:00 clear sky 42.050 42.050 42.050 10 2.49 m/h 0 %
20:00:00 scattered clouds 38.028 38.028 38.028 13 3 m/h 0 %
23:00:00 broken clouds 35.950 35.950 35.950 13 3.95 m/h 0 %
24-Apr-2019 (Wed)
02:00:00 overcast clouds 32.982 32.982 32.982 15 2.53 m/h 0 %
05:00:00 scattered clouds 30.944 30.944 30.944 21 2.48 m/h 0 %
08:00:00 clear sky 32.550 32.550 32.550 26 5.96 m/h 0 %
11:00:00 few clouds 38.208 38.208 38.208 17 6.19 m/h 0 %
14:00:00 overcast clouds 39.850 39.850 39.850 15 5.96 m/h 0 %
17:00:00 overcast clouds 38.550 38.550 38.550 16 6.41 m/h 0 %
20:00:00 light rain 33.555 33.555 33.555 25 9.66 m/h 13 %
23:00:00 light rain 28.445 28.445 28.445 42 6.61 m/h 13 %
25-Apr-2019 (Thu)
02:00:00 light rain 26.950 26.950 26.950 52 4.85 m/h 169 %
05:00:00 light rain 26.212 26.212 26.212 54 2.15 m/h 144 %
08:00:00 few clouds 29.720 29.720 29.720 37 5.44 m/h 0 %
11:00:00 few clouds 35.290 35.290 35.290 22 3.87 m/h 0 %
14:00:00 light rain 37.550 37.550 37.550 18 2.24 m/h 19 %
17:00:00 clear sky 38.011 38.011 38.011 17 4.03 m/h 0 %
20:00:00 clear sky 33.625 33.625 33.625 24 4.98 m/h 0 %
23:00:00 clear sky 31.143 31.143 31.143 31 2.73 m/h 0 %
26-Apr-2019 (Fri)
02:00:00 clear sky 28.732 28.732 28.732 39 3.2 m/h 0 %
05:00:00 clear sky 28.566 28.566 28.566 34 1.84 m/h 0 %


Multan's Tourist Spots

Historical Places in Multan

Famous Cities (60)